ADDS METAR Data INFO
IDs: Format: Raw Decoded Include TAF

Data at: 1605 UTC 19 Oct 2017

K0F2 191555Z AUTO 18007KT 10SM CLR 22/14 A3018 RMK AO2 T02150144
K0F2 191535Z AUTO 17008KT 10SM CLR 21/14 A3018 RMK AO2 T02050140
K0F2 191515Z AUTO 17007G14KT 10SM CLR 19/13 A3018 RMK AO2 T01910134
K0F2 191455Z AUTO 17010KT 10SM CLR 19/13 A3018 RMK AO2 T01900129
K0F2 191435Z AUTO 15004KT 10SM CLR 15/10 A3017 RMK AO2 T01530103
K0F2 191415Z AUTO 15003KT 10SM CLR 14/09 A3017 RMK AO2 T01380093
K0F2 191355Z AUTO 13003KT 10SM CLR 13/09 A3016 RMK AO2 T01290086
K0F2 191335Z AUTO 13003KT 10SM CLR 13/09 A3015 RMK AO2 T01250086
K0F2 191315Z AUTO 14003KT 10SM CLR 12/08 A3014 RMK AO2 T01150080
K0F2 191255Z AUTO 14003KT 10SM CLR 11/08 A3014 RMK AO2 T01100080
K0F2 191235Z AUTO 13003KT 10SM CLR 11/08 A3014 RMK AO2 T01110083
K0F2 191215Z AUTO 00000KT 10SM CLR 10/08 A3014 RMK AO2 T01040080
K0F2 191155Z AUTO 00000KT 10SM CLR 10/07 A3014 RMK AO2 T00980074 10154 20098
K0F2 191135Z AUTO 00000KT 10SM CLR 11/07 A3013 RMK AO2 T01050072
K0F2 191115Z AUTO 00000KT 10SM CLR 10/07 A3013 RMK AO2 T01040070
K0F2 191055Z AUTO 00000KT 10SM CLR 11/07 A3012 RMK AO2 T01090070
K0F2 191035Z AUTO 00000KT 10SM CLR 11/07 A3011 RMK AO2 T01060070
K0F2 191015Z AUTO 00000KT 10SM CLR 11/07 A3010 RMK AO2 T01050070
K0F2 190955Z AUTO 00000KT 10SM CLR 12/07 A3010 RMK AO2 T01220070
K0F2 190935Z AUTO 00000KT 10SM CLR 14/07 A3010 RMK AO2 T01370070
K0F2 190915Z AUTO 15004KT 10SM CLR 15/07 A3009 RMK AO2 T01480070
K0F2 190855Z AUTO 15006KT 10SM CLR 15/07 A3009 RMK AO2 T01500068
K0F2 190835Z AUTO 15005KT 10SM CLR 15/07 A3010 RMK AO2 T01500068
K0F2 190815Z AUTO 16005KT 10SM CLR 15/07 A3010 RMK AO2 T01450067
K0F2 190755Z AUTO 16003KT 10SM CLR 15/07 A3010 RMK AO2 T01450065
K0F2 190735Z AUTO 00000KT 10SM CLR 15/06 A3010 RMK AO2 T01470064
K0F2 190715Z AUTO 15005KT 10SM CLR 15/06 A3010 RMK AO2 T01510063
K0F2 190655Z AUTO 15007KT 10SM CLR 15/06 A3009 RMK AO2 T01500062
K0F2 190635Z AUTO 14006KT 10SM CLR 15/06 A3009 RMK AO2 T01480061
K0F2 190615Z AUTO 14005KT 10SM CLR 15/06 A3009 RMK AO2 T01500061
K0F2 190555Z AUTO 14005KT 10SM CLR 15/06 A3009 RMK AO2 T01540058 10220 20154 402710077
K0F2 190535Z AUTO 15007KT 10SM CLR 16/06 A3008 RMK AO2 T01590056
K0F2 190515Z AUTO 15007KT 10SM CLR 16/06 A3009 RMK AO2 T01600055
K0F2 190455Z AUTO 14006KT 10SM CLR 16/06 A3009 RMK AO2 T01600056
K0F2 190435Z AUTO 15005KT 10SM CLR 16/06 A3009 RMK AO2 T01580056
K0F2 190415Z AUTO 13006KT 10SM CLR 16/06 A3009 RMK AO2 T01620057
K0F2 190355Z AUTO 13005KT 10SM CLR 17/06 A3009 RMK AO2 T01670058
K0F2 190335Z AUTO 13005KT 10SM CLR 17/06 A3008 RMK AO2 T01690062
K0F2 190315Z AUTO 14006KT 10SM CLR 17/06 A3008 RMK AO2 T01720062
K0F2 190255Z AUTO 14006KT 10SM CLR 18/06 A3008 RMK AO2 T01780064
K0F2 190235Z AUTO 13005KT 10SM CLR 18/07 A3008 RMK AO2 T01760070
K0F2 190215Z AUTO 13005KT 10SM CLR 18/07 A3007 RMK AO2 T01820071
K0F2 190155Z AUTO 13005KT 10SM CLR 19/07 A3007 RMK AO2 T01880073
K0F2 190135Z AUTO 14006KT 10SM CLR 19/07 A3007 RMK AO2 T01910074
K0F2 190115Z AUTO 13006KT 10SM CLR 20/08 A3006 RMK AO2 T01980075
K0F2 190055Z AUTO 14006KT 10SM CLR 20/08 A3006 RMK AO2 T02020075
K0F2 190035Z AUTO 13005KT 10SM CLR 21/08 A3006 RMK AO2 T02050080
K0F2 190015Z AUTO 13006KT 10SM CLR 21/08 A3005 RMK AO2 T02120083
K0F2 182355Z AUTO 14006KT 10SM CLR 22/08 A3005 RMK AO2 T02200084 10271 20220
K0F2 182335Z AUTO 13006KT 10SM CLR 23/09 A3005 RMK AO2 T02280090
K0F2 182315Z AUTO 13004KT 10SM CLR 24/09 A3005 RMK AO2 T02390086
K0F2 182255Z AUTO 14005KT 10SM CLR 25/09 A3005 RMK AO2 T02470085
K0F2 182235Z AUTO 14008G14KT 10SM CLR 26/08 A3005 RMK AO2 T02600076
K0F2 182215Z AUTO 14007KT 10SM CLR 26/07 A3004 RMK AO2 T02600073
K0F2 182155Z AUTO 15009KT 10SM CLR 27/08 A3005 RMK AO2 T02660076
K0F2 182135Z AUTO 15010G16KT 10SM CLR 26/07 A3005 RMK AO2 T02620073
K0F2 182115Z AUTO 16010G14KT 10SM CLR 26/08 A3005 RMK AO2 T02640075
K0F2 182055Z AUTO 14009G16KT 10SM CLR 27/07 A3005 RMK AO2 T02690067
K0F2 182035Z AUTO 16010G16KT 10SM CLR 27/07 A3005 RMK AO2 T02680071
K0F2 182015Z AUTO 15010G15KT 10SM CLR 27/07 A3005 RMK AO2 T02660072
K0F2 181955Z AUTO 16013KT 10SM CLR 27/07 A3006 RMK AO2 T02650069
K0F2 181935Z AUTO 14010G15KT 10SM CLR 26/07 A3007 RMK AO2 T02610074
K0F2 181915Z AUTO 13009G14KT 10SM CLR 26/08 A3008 RMK AO2 T02600077
K0F2 181855Z AUTO 16010G15KT 10SM CLR 26/08 A3010 RMK AO2 T02590076
K0F2 181835Z AUTO 15011G15KT 10SM CLR 25/07 A3011 RMK AO2 T02540071
K0F2 181815Z AUTO 17012G17KT 10SM CLR 25/08 A3012 RMK AO2 T02520078
K0F2 181755Z AUTO 16010G16KT 10SM CLR 25/09 A3012 RMK AO2 T02460090 10246 20078
K0F2 181735Z AUTO 16012G15KT 10SM CLR 24/09 A3013 RMK AO2 T02370093
K0F2 181715Z AUTO 18011G15KT 10SM CLR 24/09 A3014 RMK AO2 T02360089
K0F2 181655Z AUTO 16010G15KT 10SM CLR 22/09 A3014 RMK AO2 T02240092
K0F2 181635Z AUTO 17010G15KT 10SM CLR 22/09 A3014 RMK AO2 T02150093
K0F2 181615Z AUTO 18011G15KT 10SM CLR 20/09 A3014 RMK AO2 T02010090
K0F2 181555Z AUTO 17010KT 10SM CLR 19/09 A3015 RMK AO2 T01920089
K0F2 181535Z AUTO 16007KT 10SM CLR 19/09 A3015 RMK AO2 T01860088
K0F2 181515Z AUTO 17009KT 10SM CLR 18/09 A3015 RMK AO2 T01760086
K0F2 181455Z AUTO 17006KT 10SM CLR 17/09 A3015 RMK AO2 T01650086
K0F2 181435Z AUTO 16008KT 10SM CLR 15/09 A3015 RMK AO2 T01540085
K0F2 181415Z AUTO 15005KT 10SM CLR 14/08 A3014 RMK AO2 T01360083
K0F2 181355Z AUTO 15004KT 10SM CLR 12/08 A3014 RMK AO2 T01160075
K0F2 181335Z AUTO 00000KT 10SM CLR 10/07 A3013 RMK AO2 T00970066
K0F2 181315Z AUTO 13004KT 10SM CLR 09/06 A3012 RMK AO2 T00860060
K0F2 181255Z AUTO 00000KT 10SM CLR 08/06 A3012 RMK AO2 T00800059
K0F2 181235Z AUTO 14003KT 10SM CLR 08/06 A3012 RMK AO2 T00800059
K0F2 181215Z AUTO 13004KT 10SM CLR 08/06 A3011 RMK AO2 T00800060
K0F2 181155Z AUTO 13003KT 10SM CLR 08/06 A3011 RMK AO2 T00800059 10105 20077
K0F2 181135Z AUTO 12003KT 10SM CLR 08/06 A3011 RMK AO2 T00770058
K0F2 181115Z AUTO 13003KT 10SM CLR 08/06 A3011 RMK AO2 T00810059
K0F2 181055Z AUTO 00000KT 10SM CLR 08/06 A3011 RMK AO2 T00810057
K0F2 181035Z AUTO 13003KT 10SM CLR 08/06 A3011 RMK AO2 T00830059
K0F2 181015Z AUTO 00000KT 10SM CLR 09/06 A3011 RMK AO2 T00870060
K0F2 180955Z AUTO 13003KT 10SM CLR 08/06 A3010 RMK AO2 T00840060
K0F2 180935Z AUTO 13003KT 10SM CLR 08/06 A3010 RMK AO2 T00820058
K0F2 180915Z AUTO 00000KT 10SM CLR 08/06 A3010 RMK AO2 T00840056
K0F2 180855Z AUTO 00000KT 10SM CLR 09/06 A3011 RMK AO2 T00850060
K0F2 180835Z AUTO 14004KT 10SM CLR 09/06 A3011 RMK AO2 T00920057
K0F2 180815Z AUTO 13003KT 10SM CLR 09/06 A3012 RMK AO2 T00920060
K0F2 180755Z AUTO 13003KT 10SM CLR 10/06 A3012 RMK AO2 T00950062
K0F2 180735Z AUTO 14004KT 10SM CLR 10/06 A3012 RMK AO2 T01000062
K0F2 180715Z AUTO 13004KT 10SM CLR 10/06 A3012 RMK AO2 T01020062
K0F2 180655Z AUTO 13004KT 10SM CLR 10/06 A3012 RMK AO2 T01030062
K0F2 180635Z AUTO 13003KT 10SM CLR 11/06 A3013 RMK AO2 T01050063
K0F2 180615Z AUTO 13004KT 10SM CLR 10/06 A3014 RMK AO2 T01030061
K0F2 180555Z AUTO 00000KT 10SM CLR 11/06 A3014 RMK AO2 T01050061 10190 20105 402360048
K0F2 180535Z AUTO 13003KT 10SM CLR 11/07 A3014 RMK AO2 T01130065
K0F2 180515Z AUTO 13003KT 10SM CLR 11/07 A3015 RMK AO2 T01140065
K0F2 180455Z AUTO 14004KT 10SM CLR 12/06 A3015 RMK AO2 T01150063
K0F2 180435Z AUTO 13004KT 10SM CLR 12/06 A3015 RMK AO2 T01150064
K0F2 180415Z AUTO 13004KT 10SM CLR 12/07 A3015 RMK AO2 T01180068